createdAt,value
2019-02-05T00:01:13.745Z,13.13
2019-02-05T00:03:42.905Z,13.30
2019-02-05T00:06:12.047Z,12.77
2019-02-05T00:08:41.518Z,12.70
2019-02-05T00:11:10.713Z,13.50
2019-02-05T00:13:39.891Z,13.57
2019-02-05T00:16:09.046Z,13.10
2019-02-05T00:18:38.485Z,13.27
2019-02-05T00:21:07.658Z,12.83
2019-02-05T00:23:37.091Z,11.70
2019-02-05T00:26:06.703Z,14.13
2019-02-05T00:28:35.993Z,16.07
2019-02-05T00:31:07.078Z,13.80
2019-02-05T00:33:36.204Z,13.23
2019-02-05T00:36:07.171Z,16.53
2019-02-05T00:38:36.330Z,13.93
2019-02-05T00:41:05.810Z,14.10
2019-02-05T00:43:35.408Z,15.37
2019-02-05T00:46:04.651Z,14.90
2019-02-05T00:48:33.808Z,14.93
2019-02-05T00:51:03.057Z,16.40
2019-02-05T00:53:32.207Z,15.20
2019-02-05T00:56:05.217Z,16.00
2019-02-05T00:58:34.409Z,15.90
2019-02-05T01:01:03.913Z,16.93
2019-02-05T01:03:33.353Z,16.73
2019-02-05T01:06:02.802Z,17.70
2019-02-05T01:08:32.202Z,17.93
2019-02-05T01:11:01.519Z,19.87
2019-02-05T01:13:30.701Z,18.47
2019-02-05T01:15:59.978Z,19.53
2019-02-05T01:18:29.245Z,18.43
2019-02-05T01:20:58.579Z,19.00
2019-02-05T01:23:28.003Z,19.90
2019-02-05T01:25:57.126Z,19.33
2019-02-05T01:28:26.566Z,18.23
2019-02-05T01:30:55.724Z,21.93
2019-02-05T01:33:24.928Z,18.10
2019-02-05T01:35:54.196Z,18.57
2019-02-05T01:38:23.421Z,20.23
2019-02-05T01:40:52.653Z,22.37
2019-02-05T01:43:21.790Z,20.50
2019-02-05T01:45:51.171Z,23.57
2019-02-05T01:48:20.327Z,28.00
2019-02-05T01:50:49.578Z,24.83
2019-02-05T01:53:18.783Z,27.67
2019-02-05T01:55:48.136Z,25.83
2019-02-05T01:58:17.251Z,25.13
2019-02-05T02:00:46.407Z,29.80
2019-02-05T02:03:15.678Z,29.90
2019-02-05T02:05:45.044Z,32.40
2019-02-05T02:08:14.470Z,33.40
2019-02-05T02:10:43.698Z,29.90
2019-02-05T02:13:12.840Z,33.20
2019-02-05T02:15:42.037Z,35.50
2019-02-05T02:18:11.247Z,35.97
2019-02-05T02:20:40.699Z,38.00
2019-02-05T02:23:09.899Z,37.73
2019-02-05T02:25:39.064Z,39.10
2019-02-05T02:28:08.237Z,40.27
2019-02-05T02:30:38.979Z,39.07
2019-02-05T02:33:08.486Z,41.53
2019-02-05T02:35:38.033Z,37.97
2019-02-05T02:38:07.192Z,38.73
2019-02-05T02:40:36.356Z,44.10
2019-02-05T02:43:05.471Z,44.10
2019-02-05T02:45:34.836Z,48.60
2019-02-05T02:48:04.291Z,45.27
2019-02-05T02:50:33.664Z,46.77
2019-02-05T02:53:02.923Z,46.40
2019-02-05T02:55:32.091Z,46.93
2019-02-05T02:58:01.250Z,53.43
2019-02-05T03:00:30.468Z,51.80
2019-02-05T03:02:59.627Z,52.87
2019-02-05T03:05:29.294Z,52.90
2019-02-05T03:07:58.466Z,49.43
2019-02-05T03:10:29.599Z,50.13
2019-02-05T03:12:59.205Z,56.07
2019-02-05T03:15:28.357Z,54.57
2019-02-05T03:17:57.653Z,55.93
2019-02-05T03:20:26.846Z,50.17
2019-02-05T03:22:56.525Z,56.40
2019-02-05T03:25:26.195Z,54.57
2019-02-05T03:27:55.677Z,55.13
2019-02-05T03:30:25.618Z,61.77
2019-02-05T03:32:55.591Z,55.97
2019-02-05T03:35:24.910Z,54.67
2019-02-05T03:37:54.101Z,59.93
2019-02-05T03:41:10.354Z,55.00
2019-02-05T03:43:40.489Z,60.10
2019-02-05T03:46:14.534Z,61.63
2019-02-05T03:48:44.221Z,59.37
2019-02-05T03:51:53.256Z,61.30
2019-02-05T03:54:49.944Z,62.87
2019-02-05T03:57:43.836Z,46.60
2019-02-05T04:00:34.798Z,62.93
2019-02-05T04:03:32.413Z,72.00
2019-02-05T04:06:10.482Z,61.13
2019-02-05T04:09:09.768Z,61.73
2019-02-05T04:12:06.051Z,70.13
2019-02-05T04:15:12.307Z,71.97
2019-02-05T04:18:11.425Z,75.03
2019-02-05T04:21:34.226Z,74.37
2019-02-05T04:24:33.363Z,72.97
2019-02-05T04:27:43.827Z,74.87
2019-02-05T04:30:48.858Z,74.73
2019-02-05T04:34:04.138Z,78.07
2019-02-05T04:37:22.045Z,75.40
2019-02-05T04:40:23.198Z,65.57
2019-02-05T04:43:13.022Z,72.50
2019-02-05T04:46:02.893Z,87.10
2019-02-05T04:49:24.826Z,70.83
2019-02-05T04:52:44.135Z,84.57
2019-02-05T04:55:57.915Z,73.50
2019-02-05T04:59:10.752Z,80.33
2019-02-05T05:02:11.157Z,76.03
2019-02-05T05:05:02.046Z,92.33
2019-02-05T05:08:18.846Z,85.03
2019-02-05T05:10:48.066Z,84.70
2019-02-05T05:13:17.227Z,85.70
2019-02-05T05:15:46.395Z,93.33
2019-02-05T05:18:15.734Z,88.57
2019-02-05T05:20:45.018Z,92.83
2019-02-05T05:23:14.149Z,90.70
2019-02-05T05:25:43.428Z,93.80
2019-02-05T05:28:12.674Z,87.50
2019-02-05T05:30:41.858Z,85.27
2019-02-05T05:33:11.420Z,86.00
2019-02-05T05:35:44.338Z,89.87
2019-02-05T05:38:11.537Z,88.10
2019-02-05T05:40:40.691Z,84.23
2019-02-05T05:43:09.837Z,94.37
2019-02-05T05:45:38.986Z,85.47
2019-02-05T05:48:08.179Z,94.43
2019-02-05T05:50:37.394Z,100.53
2019-02-05T05:53:06.838Z,97.20
2019-02-05T05:55:36.018Z,93.43
2019-02-05T05:58:05.457Z,88.57
2019-02-05T06:00:34.658Z,95.53
2019-02-05T06:03:03.897Z,88.77
2019-02-05T06:05:33.382Z,88.17
2019-02-05T06:08:02.813Z,97.03
2019-02-05T06:10:32.038Z,90.87
2019-02-05T06:13:01.182Z,85.17
2019-02-05T06:15:30.375Z,84.53
2019-02-05T06:17:59.555Z,80.17
2019-02-05T06:20:28.851Z,93.97
2019-02-05T06:22:57.967Z,94.27
2019-02-05T06:25:27.211Z,95.93
2019-02-05T06:27:56.540Z,93.67
2019-02-05T06:30:25.768Z,92.93
2019-02-05T06:32:54.971Z,93.47
2019-02-05T06:35:24.325Z,89.57
2019-02-05T06:37:53.957Z,82.63
2019-02-05T06:40:23.325Z,82.30
2019-02-05T06:42:52.561Z,89.77
2019-02-05T06:45:21.732Z,97.07
2019-02-05T06:47:50.949Z,87.80
2019-02-05T06:50:20.191Z,89.20
2019-02-05T06:52:49.507Z,87.30
2019-02-05T06:55:18.644Z,89.40
2019-02-05T06:57:47.857Z,96.20
2019-02-05T07:00:26.402Z,94.37
2019-02-05T07:02:55.564Z,91.00
2019-02-05T07:05:24.745Z,70.20
2019-02-05T07:07:54.348Z,98.00
2019-02-05T07:10:23.794Z,82.37
2019-02-05T07:12:53.008Z,90.07
2019-02-05T07:15:22.225Z,85.60
2019-02-05T07:17:51.399Z,80.73
2019-02-05T07:20:20.635Z,96.97
2019-02-05T07:22:49.932Z,89.37
2019-02-05T07:25:19.421Z,89.93
2019-02-05T07:27:48.660Z,77.40
2019-02-05T07:30:22.759Z,86.17
2019-02-05T07:32:51.926Z,79.00
2019-02-05T07:35:21.129Z,102.60
2019-02-05T07:37:50.553Z,95.87
2019-02-05T07:40:20.371Z,83.47
2019-02-05T07:42:49.589Z,67.80
2019-02-05T07:45:20.315Z,88.33
2019-02-05T07:47:49.956Z,97.23
2019-02-05T07:50:24.320Z,91.33
2019-02-05T07:52:53.544Z,101.23
2019-02-05T07:55:23.166Z,81.67
2019-02-05T07:57:52.540Z,90.03
2019-02-05T08:00:24.278Z,94.73
2019-02-05T08:02:53.723Z,98.30
2019-02-05T08:05:28.717Z,100.03
2019-02-05T08:07:58.482Z,103.67
2019-02-05T08:10:27.666Z,106.03
2019-02-05T08:12:56.949Z,101.97
2019-02-05T08:15:28.459Z,94.83
2019-02-05T08:17:57.787Z,108.13
2019-02-05T08:20:27.483Z,63.10
2019-02-05T08:22:57.185Z,105.87
2019-02-05T08:25:26.364Z,100.23
2019-02-05T08:27:55.960Z,104.53
2019-02-05T08:30:30.902Z,99.27
2019-02-05T08:33:00.095Z,81.33
2019-02-05T08:35:29.430Z,92.00
2019-02-05T08:37:58.722Z,103.63
2019-02-05T08:40:27.911Z,98.57
2019-02-05T08:42:57.123Z,99.63
2019-02-05T08:45:28.094Z,98.80
2019-02-05T08:47:57.314Z,102.43
2019-02-05T08:50:28.246Z,106.33
2019-02-05T08:52:57.477Z,99.87
2019-02-05T08:55:26.667Z,102.83
2019-02-05T08:57:58.211Z,104.63
2019-02-05T09:00:30.179Z,96.67
2019-02-05T09:02:59.389Z,103.43
2019-02-05T09:05:28.546Z,104.57
2019-02-05T09:07:57.809Z,100.30
2019-02-05T09:10:29.605Z,101.77
2019-02-05T09:12:58.821Z,99.63
2019-02-05T09:15:29.701Z,106.20
2019-02-05T09:17:59.309Z,99.37
2019-02-05T09:20:29.944Z,89.63
2019-02-05T09:22:59.166Z,99.47
2019-02-05T09:25:28.394Z,94.23
2019-02-05T09:27:57.657Z,89.33
2019-02-05T09:30:29.140Z,84.57
2019-02-05T09:33:00.094Z,92.70
2019-02-05T09:35:29.256Z,93.00
2019-02-05T09:38:04.736Z,90.57
2019-02-05T09:40:34.151Z,89.03
2019-02-05T09:43:03.528Z,89.13
2019-02-05T09:45:33.147Z,86.87
2019-02-05T09:48:02.641Z,90.03
2019-02-05T09:50:44.321Z,84.73
2019-02-05T09:53:04.254Z,83.50
2019-02-05T09:55:35.974Z,84.83
2019-02-05T09:58:04.578Z,80.23
2019-02-05T10:00:36.095Z,92.40
2019-02-05T10:03:06.406Z,85.07
2019-02-05T10:05:35.636Z,92.70
2019-02-05T10:08:05.116Z,89.17
2019-02-05T10:10:34.455Z,104.27
2019-02-05T10:13:03.939Z,89.23
2019-02-05T10:15:35.009Z,90.57
2019-02-05T10:18:04.661Z,96.20
2019-02-05T10:20:33.910Z,92.20
2019-02-05T10:23:05.270Z,94.43
2019-02-05T10:25:34.447Z,102.50
2019-02-05T10:28:03.687Z,84.93
2019-02-05T10:30:38.095Z,102.60
2019-02-05T10:33:07.980Z,100.23
2019-02-05T10:35:37.232Z,91.90
2019-02-05T10:38:06.846Z,91.67
2019-02-05T10:40:36.188Z,92.03
2019-02-05T10:43:06.528Z,86.90
2019-02-05T10:45:36.250Z,84.80
2019-02-05T10:48:06.967Z,86.17
2019-02-05T10:50:36.196Z,85.67
2019-02-05T10:53:05.649Z,87.77
2019-02-05T10:55:34.901Z,83.13
2019-02-05T10:58:04.112Z,74.37
2019-02-05T11:00:33.502Z,78.90
2019-02-05T11:03:03.644Z,73.50
2019-02-05T11:05:33.118Z,71.40
2019-02-05T11:08:03.149Z,69.23
2019-02-05T11:10:33.688Z,64.00
2019-02-05T11:13:03.022Z,67.33
2019-02-05T11:15:32.985Z,61.93
2019-02-05T11:18:02.636Z,59.53
2019-02-05T11:20:32.279Z,59.17
2019-02-05T11:23:02.324Z,59.73
2019-02-05T11:25:31.571Z,59.50
2019-02-05T11:28:02.563Z,55.07
2019-02-05T11:30:36.985Z,54.23
2019-02-05T11:33:06.333Z,51.93
2019-02-05T11:35:35.872Z,60.47
2019-02-05T11:38:06.075Z,53.80
2019-02-05T11:40:36.097Z,48.40
2019-02-05T11:43:05.568Z,53.17
2019-02-05T11:45:34.733Z,45.40
2019-02-05T11:48:04.525Z,50.90
2019-02-05T11:50:34.135Z,51.20
2019-02-05T11:53:03.452Z,55.70
2019-02-05T11:55:33.318Z,54.13
2019-02-05T11:58:02.512Z,49.73
2019-02-05T12:00:35.298Z,46.07
2019-02-05T12:03:05.072Z,48.43
2019-02-05T12:05:34.727Z,45.30
2019-02-05T12:08:04.215Z,54.30
2019-02-05T12:10:33.487Z,44.57
2019-02-05T12:13:02.807Z,47.00
2019-02-05T12:15:32.000Z,48.60
2019-02-05T12:18:02.160Z,46.33
2019-02-05T12:20:31.392Z,44.00
2019-02-05T12:23:03.040Z,41.97
2019-02-05T12:25:32.329Z,44.07
2019-02-05T12:28:02.928Z,43.43
2019-02-05T12:30:44.556Z,47.07
2019-02-05T12:33:06.463Z,47.07
2019-02-05T12:35:35.829Z,46.07
2019-02-05T12:38:05.948Z,39.00
2019-02-05T12:40:35.716Z,48.63
2019-02-05T12:43:05.576Z,42.20
2019-02-05T12:45:35.366Z,44.80
2019-02-05T12:48:04.598Z,47.07
2019-02-05T12:50:35.015Z,46.50
2019-02-05T12:53:04.635Z,42.70
2019-02-05T12:55:33.927Z,45.80
2019-02-05T12:58:03.124Z,46.43
2019-02-05T13:00:37.983Z,47.53
2019-02-05T13:03:08.090Z,44.73
2019-02-05T13:05:37.344Z,44.83
2019-02-05T13:08:07.048Z,48.60
2019-02-05T13:10:38.099Z,45.67
2019-02-05T13:13:08.211Z,44.07
2019-02-05T13:15:37.555Z,43.37
2019-02-05T13:18:07.308Z,43.57
2019-02-05T13:20:36.566Z,43.97
2019-02-05T13:23:06.686Z,43.03
2019-02-05T13:25:36.014Z,44.13
2019-02-05T13:28:07.096Z,42.07
2019-02-05T13:30:37.323Z,45.63
2019-02-05T13:33:07.554Z,44.73
2019-02-05T13:35:37.061Z,40.73
2019-02-05T13:38:06.878Z,46.70
2019-02-05T13:40:36.218Z,46.57
2019-02-05T13:43:05.986Z,45.13
2019-02-05T13:45:35.876Z,46.30
2019-02-05T13:48:06.655Z,48.23
2019-02-05T13:50:36.200Z,49.07
2019-02-05T13:53:06.271Z,42.97
2019-02-05T13:55:38.209Z,43.40
2019-02-05T13:58:07.502Z,47.23
2019-02-05T14:00:45.253Z,48.13
2019-02-05T14:03:14.453Z,42.60
2019-02-05T14:05:43.737Z,45.13
2019-02-05T14:08:13.125Z,49.30
2019-02-05T14:10:42.470Z,44.70
2019-02-05T14:13:11.653Z,44.53
2019-02-05T14:15:42.055Z,42.17
2019-02-05T14:18:11.978Z,40.87
2019-02-05T14:20:41.238Z,46.80
2019-02-05T14:23:10.443Z,44.80
2019-02-05T14:25:39.723Z,45.87
2019-02-05T14:28:09.342Z,48.43
2019-02-05T14:31:02.177Z,44.83
2019-02-05T14:33:32.176Z,47.23
2019-02-05T14:36:02.356Z,45.83
2019-02-05T14:38:31.554Z,43.67
2019-02-05T14:41:00.770Z,48.40
2019-02-05T14:43:30.012Z,40.53
2019-02-05T14:45:59.244Z,48.53
2019-02-05T14:48:28.489Z,43.10
2019-02-05T14:50:57.699Z,43.40
2019-02-05T14:53:26.953Z,40.07
2019-02-05T14:55:56.240Z,40.30
2019-02-05T14:58:25.465Z,38.53
2019-02-05T15:00:54.877Z,40.20
2019-02-05T15:03:24.059Z,38.37
2019-02-05T15:05:53.754Z,39.13
2019-02-05T15:08:22.918Z,43.00
2019-02-05T15:10:52.540Z,39.27
2019-02-05T15:13:21.853Z,40.80
2019-02-05T15:15:51.051Z,42.77
2019-02-05T15:18:22.296Z,42.10
2019-02-05T15:20:51.784Z,41.40
2019-02-05T15:23:21.580Z,39.63
2019-02-05T15:25:51.147Z,41.23
2019-02-05T15:28:20.415Z,41.60
2019-02-05T15:30:50.027Z,40.00
2019-02-05T15:33:48.293Z,38.40
2019-02-05T15:36:34.897Z,39.53
2019-02-05T15:39:13.785Z,41.07
2019-02-05T15:41:43.015Z,38.13
2019-02-05T15:44:12.556Z,42.33
2019-02-05T15:46:42.663Z,47.50
2019-02-05T15:49:12.060Z,42.13
2019-02-05T15:51:41.312Z,41.33
2019-02-05T15:54:10.543Z,46.83
2019-02-05T15:56:39.711Z,48.93
2019-02-05T15:59:09.389Z,46.63
2019-02-05T16:01:38.672Z,45.47
2019-02-05T16:04:07.867Z,47.20
2019-02-05T16:06:37.085Z,48.30
2019-02-05T16:09:08.805Z,46.30
2019-02-05T16:11:38.006Z,47.60
2019-02-05T16:14:07.650Z,49.03
2019-02-05T16:16:36.901Z,48.57
2019-02-05T16:19:06.077Z,48.10
2019-02-05T16:21:35.503Z,46.27
2019-02-05T16:24:04.790Z,44.63
2019-02-05T16:26:34.054Z,46.00
2019-02-05T16:29:03.620Z,45.70
2019-02-05T16:31:32.822Z,43.77
2019-02-05T16:34:02.502Z,49.10
2019-02-05T16:36:31.715Z,49.07
2019-02-05T16:39:00.885Z,46.67
2019-02-05T16:41:30.202Z,45.87
2019-02-05T16:43:59.676Z,44.77
2019-02-05T16:46:29.074Z,50.80
2019-02-05T16:48:58.463Z,45.07
2019-02-05T16:51:27.634Z,48.17
2019-02-05T16:53:56.962Z,46.47
2019-02-05T16:56:26.126Z,46.23
2019-02-05T16:58:55.364Z,49.27
2019-02-05T17:01:24.640Z,43.70
2019-02-05T17:03:53.871Z,47.37
2019-02-05T17:06:23.156Z,49.03
2019-02-05T17:08:52.309Z,50.33
2019-02-05T17:11:21.730Z,52.67
2019-02-05T17:13:50.888Z,51.70
2019-02-05T17:16:20.183Z,53.63
2019-02-05T17:18:49.563Z,53.80
2019-02-05T17:21:18.753Z,56.97
2019-02-05T17:23:47.926Z,53.27
2019-02-05T17:26:17.175Z,53.30
2019-02-05T17:28:46.341Z,52.23
2019-02-05T17:31:15.559Z,51.27
2019-02-05T17:33:44.866Z,56.23
2019-02-05T17:36:14.143Z,56.83
2019-02-05T17:38:43.411Z,59.57
2019-02-05T17:41:12.642Z,53.70
2019-02-05T17:43:41.891Z,59.27
2019-02-05T17:46:11.087Z,51.43
2019-02-05T17:48:40.513Z,55.33
2019-02-05T17:51:09.929Z,55.10
2019-02-05T17:53:39.174Z,51.43
2019-02-05T17:56:08.452Z,52.97
2019-02-05T17:58:37.738Z,48.40
2019-02-05T18:01:10.216Z,53.93
2019-02-05T18:03:39.653Z,48.50
2019-02-05T18:06:08.962Z,55.33
2019-02-05T18:08:38.314Z,49.40
2019-02-05T18:11:08.140Z,48.33
2019-02-05T18:13:37.603Z,48.90
2019-02-05T18:16:27.714Z,47.00
2019-02-05T18:18:56.955Z,47.60
2019-02-05T18:21:28.444Z,52.43
2019-02-05T18:23:57.715Z,49.20
2019-02-05T18:26:27.041Z,48.23
2019-02-05T18:28:56.270Z,46.80
2019-02-05T18:31:27.168Z,52.47
2019-02-05T18:33:56.528Z,52.60
2019-02-05T18:36:28.566Z,56.83
2019-02-05T18:38:58.206Z,53.60
2019-02-05T18:41:27.502Z,54.63
2019-02-05T18:43:56.796Z,59.10
2019-02-05T18:46:26.299Z,52.30
2019-02-05T18:49:04.539Z,58.13
2019-02-05T18:51:26.513Z,55.77
2019-02-05T18:53:56.002Z,59.20
2019-02-05T18:56:25.436Z,55.47
2019-02-05T18:58:54.998Z,58.17
2019-02-05T19:01:24.444Z,57.53
2019-02-05T19:03:53.844Z,58.60
2019-02-05T19:06:24.321Z,54.93
2019-02-05T19:08:56.285Z,52.60
2019-02-05T19:11:25.611Z,53.50
2019-02-05T19:13:55.099Z,57.50
2019-02-05T19:16:25.229Z,47.80
2019-02-05T19:18:54.764Z,49.63
2019-02-05T19:21:24.097Z,51.93
2019-02-05T19:24:03.530Z,47.83
2019-02-05T19:26:41.139Z,47.37
2019-02-05T19:29:18.478Z,51.83
2019-02-05T19:31:42.482Z,49.10
2019-02-05T19:34:13.305Z,49.77
2019-02-05T19:36:44.227Z,52.20
2019-02-05T19:39:13.581Z,48.43
2019-02-05T19:41:45.513Z,51.03
2019-02-05T19:44:14.810Z,47.53
2019-02-05T19:47:05.371Z,52.50
2019-02-05T19:49:39.818Z,55.63
2019-02-05T19:52:09.307Z,51.63
2019-02-05T19:54:38.724Z,51.73
2019-02-05T19:57:08.025Z,53.53
2019-02-05T19:59:38.495Z,49.57
2019-02-05T20:02:08.763Z,48.63
2019-02-05T20:04:38.166Z,55.87
2019-02-05T20:07:08.196Z,50.60
2019-02-05T20:09:37.626Z,52.17
2019-02-05T20:12:08.154Z,44.80
2019-02-05T20:14:37.572Z,46.07
2019-02-05T20:17:07.560Z,47.83
2019-02-05T20:19:36.893Z,51.17
2019-02-05T20:22:06.529Z,51.43
2019-02-05T20:24:37.116Z,56.93
2019-02-05T20:27:06.694Z,50.67
2019-02-05T20:29:36.255Z,52.20
2019-02-05T20:32:08.583Z,49.00
2019-02-05T20:34:37.966Z,48.93
2019-02-05T20:37:07.673Z,50.13
2019-02-05T20:39:37.482Z,47.70
2019-02-05T20:42:07.620Z,48.60
2019-02-05T20:44:37.037Z,47.77
2019-02-05T20:47:06.790Z,53.17
2019-02-05T20:49:37.629Z,57.27
2019-02-05T20:52:07.376Z,49.47
2019-02-05T20:54:36.551Z,53.03
2019-02-05T20:57:06.067Z,52.60
2019-02-05T20:59:35.381Z,48.80
2019-02-05T21:02:04.770Z,52.27
2019-02-05T21:04:35.555Z,55.03
2019-02-05T21:07:07.811Z,53.17
2019-02-05T21:09:37.187Z,52.83
2019-02-05T21:12:06.742Z,51.67
2019-02-05T21:14:36.002Z,53.70
2019-02-05T21:17:07.831Z,50.70
2019-02-05T21:19:37.134Z,54.57
2019-02-05T21:22:08.941Z,53.33
2019-02-05T21:24:38.351Z,55.20
2019-02-05T21:27:07.823Z,54.30
2019-02-05T21:29:37.413Z,56.07
2019-02-05T21:32:06.645Z,54.13
2019-02-05T21:34:37.832Z,54.37
2019-02-05T21:37:09.434Z,54.23
2019-02-05T21:39:38.777Z,56.97
2019-02-05T21:42:08.079Z,57.57
2019-02-05T21:44:37.280Z,57.57
2019-02-05T21:47:06.563Z,53.77
2019-02-05T21:49:35.876Z,58.03
2019-02-05T21:52:05.184Z,57.40
2019-02-05T21:54:34.374Z,57.23
2019-02-05T21:57:03.694Z,56.17
2019-02-05T21:59:32.919Z,56.37
2019-02-05T22:02:02.180Z,56.90
2019-02-05T22:04:31.649Z,56.13
2019-02-05T22:07:00.878Z,57.77
2019-02-05T22:09:30.073Z,54.47
2019-02-05T22:11:59.415Z,56.33
2019-02-05T22:14:28.665Z,53.87
2019-02-05T22:16:57.885Z,56.33
2019-02-05T22:19:27.426Z,55.73
2019-02-05T22:21:56.635Z,57.67
2019-02-05T22:24:25.793Z,55.67
2019-02-05T22:26:54.972Z,53.67
2019-02-05T22:29:24.190Z,51.23
2019-02-05T22:31:53.396Z,53.67
2019-02-05T22:34:22.854Z,50.73
2019-02-05T22:36:52.017Z,53.03
2019-02-05T22:39:21.615Z,54.93
2019-02-05T22:41:50.856Z,50.40
2019-02-05T22:44:20.271Z,52.40
2019-02-05T22:46:49.828Z,48.80
2019-02-05T22:49:19.042Z,48.60
2019-02-05T22:51:48.577Z,51.17
2019-02-05T22:54:17.864Z,46.27
2019-02-05T22:56:47.449Z,50.40
2019-02-05T22:59:17.146Z,47.07
2019-02-05T23:01:55.599Z,47.03
2019-02-05T23:04:51.307Z,47.53
2019-02-05T23:07:22.360Z,44.77
2019-02-05T23:10:21.949Z,49.13
